x

Pt Arena - 19nm North Of Point Arena, Ca (46014) Wave Buoy

1:50am - Sun 11th Dec 2016 All times are PST. -8 hours from GMT.

  • Sig Wave height 8.5ft
  • Swell Direction
  • Peak Period 12s
  • Average Period 8s
  • Wind
    11mph, 16mph gusts
  • Air Temp 53°f
  • Sea Pressure 1022.8mb
  • Pt Arena - 19nm North Of Point Arena, Ca
  • Pt Arena - 19nm North Of Point Arena, Ca

More Historic Weather Station data

Upgrade to MSW Pro to gain access to the past 30 days of data for over 8000 Wavebouys and Weather Stations around the globe.

Join Pro

Comparision Forecast

View Surf forecast
   
Sun 12/11 1:50am 8.5ft 12s 8s 11 16 mph 1022.8mb 53f
1:40am 8.5ft  -  8s 11 13 mph 1022.6mb 53f
1:30am  -   -   -  11 16 mph 1022.5mb 53f
1:20am  -   -   -  11 16 mph 1022.5mb 53f
1:10am  -   -   -  11 16 mph 1022.5mb 53f
1:00am  -   -   -  13 18 mph 1022.5mb 53f
12:50am 9ft 11s 8s 13 16 mph 1022.5mb 53f
12:40am 9ft  -  8s 16 18 mph 1022.5mb 53f
12:30am  -   -   -  13 18 mph 1022.5mb 53f
12:20am  -   -   -  16 18 mph 1022.6mb 53f
12:10am  -   -   -  16 20 mph 1022.5mb 53f
12:00am  -   -   -  16 20 mph 1022.5mb 53f
Sat 12/10 11:50pm 8.5ft 11s 7s 18 22 mph 1022.4mb 53f
11:40pm 8.5ft  -  7s 18 22 mph 1022.3mb 54f
11:30pm  -   -   -  18 22 mph 1022.3mb 54f
11:20pm  -   -   -  16 22 mph 1022.3mb 54f
11:10pm  -   -   -  16 20 mph 1022.4mb 54f
11:00pm  -   -   -  16 20 mph 1022.3mb 54f
10:50pm 8.5ft 12s 7s 16 20 mph 1022.3mb 54f
10:40pm 8.5ft  -  7s 16 20 mph 1022.1mb 54f
10:30pm  -   -   -  16 20 mph 1022mb 54f
10:20pm  -   -   -  16 20 mph 1021.9mb 54f
10:10pm  -   -   -  16 20 mph 1021.6mb 54f
10:00pm  -   -   -  16 18 mph 1021.5mb 54f
9:50pm 8ft 12s 7s 16 18 mph 1021.5mb 54f
9:40pm 8ft  -  7s 16 20 mph 1021.4mb 54f
9:30pm  -   -   -  16 20 mph 1021.3mb 54f
9:20pm  -   -   -  13 18 mph 1021.3mb 54f
9:10pm  -   -   -  16 18 mph 1021.1mb 54f
9:00pm  -   -   -  16 20 mph 1021.3mb 54f
8:50pm 8ft 11s 7s 16 20 mph 1021mb 54f
8:40pm 8ft  -  7s 13 20 mph 1021mb 54f
8:30pm  -   -   -  16 22 mph 1020.9mb 54f
8:20pm  -   -   -  16 22 mph 1020.9mb 54f
8:10pm  -   -   -  16 22 mph 1021mb 54f
8:00pm  -   -   -  18 22 mph 1021mb 54f
7:50pm 7ft 11s 7s 18 22 mph 1021mb 54f
7:40pm 7ft  -  7s 18 25 mph 1020.9mb 54f
7:30pm  -   -   -  18 25 mph 1020.8mb 54f
7:20pm  -   -   -  16 20 mph 1020.8mb 54f
7:10pm  -   -   -  13 18 mph 1020.5mb 54f
7:00pm  -   -   -  16 20 mph 1020.5mb 54f
6:50pm 8.5ft 12s 8s 16 20 mph 1020.3mb 54f
6:40pm  -   -   -  16 22 mph 1020.3mb 54f
6:30pm  -   -   -  16 20 mph 1020.1mb 55f
6:20pm  -   -   -  16 20 mph 1020.1mb 55f
6:10pm  -   -   -  16 20 mph 1020mb 55f
6:00pm  -   -   -  16 20 mph 1020.1mb 55f
5:50pm 8ft 13s 8s 16 18 mph 1020.1mb 55f
5:40pm  -   -   -  13 18 mph 1020mb 55f
5:30pm  -   -   -  13 18 mph 1019.9mb 55f
5:20pm  -   -   -  13 18 mph 1020mb -
5:10pm  -   -   -  13 18 mph 1020mb 55f
5:00pm  -   -   -  13 18 mph 1020mb 55f
4:50pm 8ft 11s 8s 13 18 mph 1020mb 55f
4:40pm  -   -   -  13 18 mph 1019.6mb 55f
4:30pm  -   -   -  16 20 mph 1019.6mb 55f
4:20pm  -   -   -  13 20 mph 1019.6mb 55f
4:10pm  -   -   -  16 18 mph 1019.6mb 55f
4:00pm  -   -   -  13 18 mph 1019.5mb 55f
3:50pm 8ft 11s 8s 13 20 mph 1019.4mb 55f
3:40pm  -   -   -  13 18 mph 1019.5mb 54f
3:30pm  -   -   -  13 18 mph 1019.4mb 54f
3:20pm  -   -   -  13 18 mph 1019.3mb 54f
3:10pm  -   -   -  11 16 mph 1019.3mb 54f
3:00pm  -   -   -  11 16 mph 1019.3mb 54f
2:50pm 8ft 11s 8s 11 13 mph 1019.1mb 54f
2:40pm 8ft  -  8s 11 13 mph 1019mb 54f
2:30pm  -   -   -  13 16 mph 1019mb 54f
2:20pm  -   -   -  11 13 mph 1019mb 54f
2:10pm  -   -   -  9 13 mph 1018.9mb 54f
2:00pm  -   -   -  9 11 mph 1018.9mb 54f
1:50pm 8ft 11s 8s 9 11 mph 1018.8mb 54f
1:40pm 8ft  -  8s 11 13 mph 1018.8mb 54f
1:30pm  -   -   -  11 16 mph 1019mb 54f
1:20pm  -   -   -  11 13 mph 1019mb 54f
1:10pm  -   -   -  11 13 mph 1019mb 54f
1:00pm  -   -   -  7 9 mph 1018.9mb 54f
12:50pm 8.5ft 11s 8s 7 9 mph 1018.8mb 54f
12:40pm  -   -   -  9 11 mph 1018.9mb 54f
12:30pm  -   -   -  9 11 mph 1019mb 54f
12:20pm  -   -   -  9 11 mph 1019mb 54f
12:10pm  -   -   -  7 11 mph 1018.9mb 54f
12:00pm  -   -   -  9 11 mph 1019mb 55f
11:50am 8ft 11s 7s 9 11 mph 1019.1mb 55f
11:40am 8ft  -  7s 9 11 mph 1019.6mb 55f
11:30am  -   -   -  7 9 mph 1019.5mb 54f
11:20am  -   -   -  9 11 mph 1019.5mb 54f
11:10am  -   -   -  9 11 mph 1019.6mb 55f
11:00am  -   -   -  7 11 mph 1019.8mb 55f
10:50am 9ft 12s 8s 7 9 mph 1019.8mb 55f
10:40am  -   -   -  9 11 mph 1019.5mb 54f
10:30am  -   -   -  9 13 mph 1019.5mb 54f
10:20am  -   -   -  9 13 mph 1019.8mb 54f
10:10am  -   -   -  11 16 mph 1019.8mb 54f
10:00am  -   -   -  13 16 mph 1019.8mb 54f
9:50am 9ft 11s 8s 13 18 mph 1019.6mb 54f
9:40am 9ft  -  8s 13 18 mph 1019.4mb 55f
9:30am  -   -   -  11 16 mph 1019mb 55f
9:20am  -   -   -  11 13 mph 1019mb 55f
9:10am  -   -   -  11 13 mph 1018.8mb 55f
9:00am  -   -   -  11 16 mph 1018.4mb 55f
8:50am 8.5ft 12s 7s 9 11 mph 1018mb 55f
8:40am  -   -   -  9 13 mph 1017.8mb 55f
8:30am  -   -   -  9 11 mph 1017.6mb 55f
8:20am  -   -   -  9 11 mph 1017.6mb 55f
8:10am  -   -   -  9 11 mph 1017.5mb 55f
8:00am  -   -   -  9 13 mph 1017.3mb 55f
7:50am 9ft 13s 7s 11 13 mph 1017.4mb 55f
7:40am  -   -   -  13 16 mph 1017.3mb 55f
7:30am  -   -   -  13 18 mph 1017.3mb 55f
7:20am  -   -   -  13 16 mph 1017mb 55f
7:10am  -   -   -  13 16 mph 1016.9mb 55f
7:00am  -   -   -  13 18 mph 1017mb 55f
6:50am 9.5ft 13s 7s 11 18 mph 1017mb 55f
6:40am  -   -   -  9 11 mph 1016.9mb 56f
6:30am  -   -   -  4 13 mph 1016.8mb 56f
6:20am  -   -   -  4 9 mph 1016.6mb 56f
6:10am  -   -   -  4 7 mph 1016.6mb 56f
6:00am  -   -   -  4 7 mph 1016.5mb 56f
5:50am 9.5ft 13s 7s 4 7 mph 1016.6mb 56f
5:40am  -   -   -  4 7 mph 1016.6mb 56f
5:30am  -   -   -  4 9 mph 1016.5mb 56f
5:20am  -   -   -  4 9 mph 1016.5mb 56f
5:10am  -   -   -  4 9 mph 1016.5mb 56f
5:00am  -   -   -  7 9 mph 1016.6mb 56f
4:50am 9ft 12s 7s 7 9 mph 1016.4mb 56f
4:40am 9ft  -  7s 7 11 mph 1016.4mb 57f
4:30am  -   -   -  9 13 mph 1016.3mb 57f
4:20am  -   -   -  11 18 mph 1016.3mb 57f
4:10am  -   -   -  16 22 mph 1016.3mb 57f
4:00am  -   -   -  16 22 mph 1016.1mb 58f
3:50am 9ft 10s 7s 18 22 mph 1016mb 58f
3:40am  -   -   -  18 22 mph 1015.9mb 58f
3:30am  -   -   -  18 22 mph 1015.8mb 58f
3:20am  -   -   -  20 25 mph 1015.9mb 58f
3:10am  -   -   -  20 27 mph 1015.9mb 58f
3:00am  -   -   -  20 25 mph 1015.8mb 58f
2:50am 8.5ft 11s 7s 20 27 mph 1015.6mb 58f
2:40am 8.5ft  -  7s 20 25 mph 1015.6mb 58f
2:30am  -   -   -  20 25 mph 1015.6mb 58f
2:20am  -   -   -  20 25 mph 1015.6mb 58f
2:10am  -   -   -  20 25 mph 1015.6mb 58f
2:00am  -   -   -  20 27 mph 1015.5mb 58f
1:50am 9ft 10s 6s 20 25 mph 1015.5mb 58f
1:40am 9ft  -  6s 20 25 mph 1015.5mb 58f
1:30am  -   -   -  20 27 mph 1015.5mb 58f
1:20am  -   -   -  20 25 mph 1015.6mb 58f
1:10am  -   -   -  22 25 mph 1015.6mb 58f
1:00am  -   -   -  20 27 mph 1015.6mb 58f
12:50am 8ft 9s 6s 22 25 mph 1015.5mb 58f
12:40am  -   -   -  20 27 mph 1015.6mb 58f
12:30am  -   -   -  20 27 mph 1015.8mb 58f
12:20am  -   -   -  20 25 mph 1015.8mb 58f
12:10am  -   -   -  20 25 mph 1015.8mb 57f
12:00am  -   -   -  18 22 mph 1015.9mb 56f
Fri 12/09 11:50pm 7ft 9s 6s 20 25 mph 1016mb 56f
11:40pm  -   -   -  20 25 mph 1016mb 56f
11:30pm  -   -   -  25 29 mph 1016.1mb 56f
11:20pm  -   -   -  22 29 mph 1016mb 56f
11:10pm  -   -   -  25 31 mph 1016.3mb 56f
11:00pm  -   -   -  27 31 mph 1016.4mb 55f
10:50pm 7.5ft 9s 6s 27 36 mph 1016.3mb 55f
10:40pm  -   -   -  25 34 mph 1016.3mb 55f
10:30pm  -   -   -  25 31 mph 1016.4mb 55f
10:20pm  -   -   -  27 34 mph 1016.3mb 55f
10:10pm  -   -   -  27 36 mph 1016.4mb 55f
10:00pm  -   -   -  27 34 mph 1016.4mb 55f
9:50pm 8ft 10s 6s 27 34 mph 1016.5mb 55f
9:40pm 8ft  -  6s 27 34 mph 1016.4mb 55f
9:30pm  -   -   -  27 36 mph 1016.5mb 55f
9:20pm  -   -   -  27 34 mph 1016.8mb 55f
9:10pm  -   -   -  27 34 mph 1016.9mb 55f
9:00pm  -   -   -  29 34 mph 1016.5mb 55f
8:50pm 7.5ft 9s 6s 27 34 mph 1016.6mb 55f
8:40pm 7.5ft  -  6s 25 34 mph 1016.8mb 55f
8:30pm  -   -   -  27 34 mph 1017mb 55f
8:20pm  -   -   -  25 31 mph 1017mb 55f
8:10pm  -   -   -  22 29 mph 1017.5mb 55f
8:00pm  -   -   -  25 31 mph 1017.9mb 55f
7:50pm 7.5ft 10s 7s 27 31 mph 1017.5mb 55f
7:40pm 7.5ft  -  7s 25 31 mph 1017.8mb 55f
7:30pm  -   -   -  25 31 mph 1017.5mb 55f
7:20pm  -   -   -  25 29 mph 1017.6mb 56f
7:10pm  -   -   -  25 29 mph 1017.8mb 56f
7:00pm  -   -   -  22 29 mph 1017.8mb 56f
6:50pm 7ft 10s 7s 22 27 mph 1017.9mb 56f
6:40pm 7ft  -  7s 22 27 mph 1018mb 56f
6:30pm  -   -   -  22 29 mph 1017.9mb 56f
6:20pm  -   -   -  22 29 mph 1017.8mb 56f
6:10pm  -   -   -  22 27 mph 1018.1mb 56f
6:00pm  -   -   -  20 27 mph 1018.3mb 56f
5:50pm 7ft 10s 7s 20 27 mph 1018.5mb 56f
5:40pm 7ft  -  7s 20 25 mph 1018.6mb 56f
5:30pm  -   -   -  18 25 mph 1019mb 56f
5:20pm  -   -   -  18 22 mph 1019.3mb 56f
5:10pm  -   -   -  18 22 mph 1019.3mb 56f
5:00pm  -   -   -  18 22 mph 1019.3mb 56f
4:50pm 7ft 9s 7s 18 20 mph 1019.4mb 56f
4:40pm 7ft  -  7s 16 20 mph 1019.6mb 56f
4:30pm  -   -   -  16 20 mph 1019.6mb 56f
4:20pm  -   -   -  16 20 mph 1019.5mb 56f
4:10pm  -   -   -  16 22 mph 1019.6mb 55f
4:00pm  -   -   -  16 20 mph 1020mb 55f
3:50pm 7ft 9s 7s 16 22 mph 1020mb 55f
3:40pm 7ft  -  7s 16 20 mph 1020mb 55f
3:30pm  -   -   -  16 20 mph 1020.3mb 55f
3:20pm  -   -   -  16 20 mph 1020.3mb 55f
3:10pm  -   -   -  16 20 mph 1020.5mb 55f
3:00pm  -   -   -  16 18 mph 1020.5mb 55f
2:50pm 6.5ft 15s 7s 13 18 mph 1020.6mb 55f
2:40pm 6.5ft  -  7s 13 16 mph 1021mb 55f
2:30pm  -   -   -  13 18 mph 1021mb 54f
2:20pm  -   -   -  16 18 mph 1021mb 54f
2:10pm  -   -   -  13 18 mph 1020.8mb 54f
2:00pm  -   -   -  16 18 mph 1020.9mb 54f
1:50pm 7.5ft 9s 8s 13 16 mph 1021.3mb 54f
1:40pm 7.5ft  -  8s 13 18 mph 1021.3mb 54f
1:30pm  -   -   -  13 16 mph 1021.5mb 54f
1:20pm  -   -   -  13 16 mph 1021.6mb 54f
1:10pm  -   -   -  13 16 mph 1021.9mb 54f
1:00pm  -   -   -  11 16 mph 1021.9mb 54f
12:50pm 7.5ft 9s 7s 13 16 mph 1022mb 54f
12:40pm 7.5ft  -  7s 13 16 mph 1022mb 54f
12:30pm  -   -   -  13 16 mph 1022mb 54f
12:20pm  -   -   -  11 16 mph 1022mb 54f
12:10pm  -   -   -  13 16 mph 1022mb 54f
12:00pm  -   -   -  13 16 mph 1022.4mb 54f
11:50am 6.5ft 8s 7s 13 16 mph 1022.4mb 54f
11:40am 6.5ft  -  7s 13 16 mph 1022.6mb 54f
11:30am  -   -   -  13 16 mph 1022.9mb 54f
11:20am  -   -   -  13 16 mph 1022.9mb 54f
11:10am  -   -   -  13 16 mph 1023mb 55f
11:00am  -   -   -  11 16 mph 1023.1mb 55f
10:50am 7ft 15s 8s 11 16 mph 1023.3mb 55f
10:40am  -   -   -  11 13 mph 1023.4mb 54f
10:30am  -   -   -  11 16 mph 1023.3mb 54f
10:20am  -   -   -  11 16 mph 1023.3mb 54f
10:10am  -   -   -  11 16 mph 1023.3mb 54f
10:00am  -   -   -  11 13 mph 1023.1mb 54f
9:50am 7ft 8s 8s 11 16 mph 1023mb 54f
9:40am 7ft  -  8s 11 13 mph 1023mb 54f
9:30am  -   -   -  11 16 mph 1023mb 54f
9:20am  -   -   -  11 13 mph 1023mb 54f
9:10am  -   -   -  11 13 mph 1023mb 54f
9:00am  -   -   -  13 18 mph 1023.3mb 55f
8:50am 6.5ft 10s 7s 9 13 mph 1023mb 55f
8:40am  -   -   -  11 13 mph 1022.8mb 55f
8:30am  -   -   -  9 13 mph 1022.6mb 54f
8:20am  -   -   -  11 13 mph 1022.5mb 54f
8:10am  -   -   -  11 13 mph 1022.5mb 54f
8:00am  -   -   -  11 13 mph 1022.3mb 54f
7:50am 7ft 10s 8s 11 13 mph 1022.1mb 54f
7:40am  -   -   -  11 13 mph 1022.1mb 54f
7:30am  -   -   -  11 13 mph 1022.3mb 54f
7:20am  -   -   -  11 13 mph 1022.1mb 54f
7:10am  -   -   -  11 13 mph 1022mb 54f
7:00am  -   -   -  11 13 mph 1021.9mb 54f
6:50am 6ft 10s 7s 11 13 mph 1021.9mb 54f
6:40am 6ft  -  7s 11 13 mph 1021.6mb 54f
6:30am  -   -   -  11 13 mph 1021.5mb 54f
6:20am  -   -   -  11 16 mph 1021.5mb 54f
6:10am  -   -   -  11 16 mph 1021.5mb 54f
6:00am  -   -   -  11 13 mph 1021.5mb 54f
5:50am 6.5ft 9s 8s 11 13 mph 1021.4mb 54f
5:40am 6.5ft  -  8s 11 13 mph 1021.5mb 54f
5:30am  -   -   -  9 13 mph 1021.5mb 54f
5:20am  -   -   -  11 13 mph 1021.4mb 54f
5:10am  -   -   -  11 13 mph 1021.1mb 54f
5:00am  -   -   -  13 18 mph 1021.5mb 54f
4:50am 5.5ft 9s 7s 9 13 mph 1021.1mb 54f
4:40am 5.5ft  -  7s 9 13 mph 1021.3mb 54f
4:30am  -   -   -  9 11 mph 1021.3mb 54f
4:20am  -   -   -  9 13 mph 1021.3mb 54f
4:10am  -   -   -  11 13 mph 1021.1mb 54f
4:00am  -   -   -  9 11 mph 1021mb 54f
3:50am 6ft 9s 7s 9 11 mph 1021.3mb 54f
3:40am 6ft  -  7s 11 13 mph 1021.3mb 54f
3:30am  -   -   -  11 13 mph 1021mb 54f
3:20am  -   -   -  11 13 mph 1021.3mb 54f
3:10am  -   -   -  11 16 mph 1021mb 54f
3:00am  -   -   -  11 13 mph 1021.4mb 54f
2:50am 6ft 15s 7s 11 13 mph 1021.4mb 54f
2:40am  -   -   -  11 13 mph 1021.5mb 54f
2:30am  -   -   -  11 13 mph 1021.5mb 54f
2:20am  -   -   -  11 13 mph 1021.5mb 54f
2:10am  -   -   -  11 13 mph 1021.5mb 54f
2:00am  -   -   -  11 13 mph 1021.4mb 55f
1:50am 6ft 9s 7s 11 13 mph 1021.4mb 55f
1:40am 6ft  -  7s 11 16 mph 1021mb 55f
1:30am  -   -   -  11 13 mph 1021mb 55f
1:20am  -   -   -  11 13 mph 1021mb 55f
1:10am  -   -   -  11 13 mph 1021mb 55f
1:00am  -   -   -  11 13 mph 1021mb 55f
12:50am 6ft 16s 7s 11 13 mph 1021mb 55f
12:40am 6ft  -  7s 11 13 mph 1021mb 55f
12:30am  -   -   -  11 13 mph 1021.1mb 55f
12:20am  -   -   -  11 13 mph 1021.3mb 55f
12:10am  -   -   -  11 13 mph 1021.4mb 55f
12:00am  -   -   -  11 13 mph 1021.4mb 55f
Thu 12/08 11:50pm 6ft 9s 7s 11 16 mph 1021.4mb 55f
11:40pm 6ft  -  7s 11 16 mph 1021.5mb 55f
11:30pm  -   -   -  13 16 mph 1021.4mb 55f
11:20pm  -   -   -  13 16 mph 1021.4mb 55f
11:10pm  -   -   -  13 16 mph 1021.4mb 55f
11:00pm  -   -   -  13 16 mph 1021.3mb 55f
10:50pm 6ft 9s 7s 13 16 mph 1021mb 55f
10:40pm 6ft  -  7s 13 16 mph 1021mb 55f
10:30pm  -   -   -  13 16 mph 1021mb 55f
10:20pm  -   -   -  13 16 mph 1021mb 55f
10:10pm  -   -   -  13 16 mph 1020.9mb 55f
10:00pm  -   -   -  13 16 mph 1020.8mb 55f
9:50pm 6ft 8s 7s 13 16 mph 1020.5mb 55f
9:40pm 6ft  -  7s 13 16 mph 1020.5mb 55f
9:30pm  -   -   -  13 18 mph 1020.4mb 55f
9:20pm  -   -   -  13 16 mph 1020.1mb 55f
9:10pm  -   -   -  13 16 mph 1020.1mb 55f
9:00pm  -   -   -  13 16 mph 1020mb 55f
8:50pm 6.5ft 8s 7s 13 16 mph 1020mb 55f
8:40pm  -   -   -  13 16 mph 1020mb 55f
8:30pm  -   -   -  13 16 mph 1020mb 55f
8:20pm  -   -   -  13 16 mph 1019.8mb 55f
8:10pm  -   -   -  13 16 mph 1019.6mb 55f
8:00pm  -   -   -  13 16 mph 1019.6mb 55f
7:50pm 6ft 8s 6s 13 16 mph 1019.6mb 55f
7:40pm 6ft  -  6s 13 18 mph 1019.5mb 55f
7:30pm  -   -   -  13 18 mph 1019.5mb 55f
7:20pm  -   -   -  13 16 mph 1019.5mb 55f
7:10pm  -   -   -  13 16 mph 1019.4mb 55f
7:00pm  -   -   -  13 16 mph 1019.4mb 55f
6:50pm 6ft 8s 6s 13 18 mph 1019.3mb 55f
6:40pm 6ft  -  6s 13 16 mph 1019.1mb 55f
6:30pm  -   -   -  13 18 mph 1019mb 55f
6:20pm  -   -   -  13 16 mph 1018.9mb 55f
6:10pm  -   -   -  13 18 mph 1018.8mb 55f
6:00pm  -   -   -  16 20 mph 1018.5mb 55f
5:50pm 5.5ft 8s 6s 16 20 mph 1018.5mb 55f
5:40pm 5.5ft  -  6s 16 22 mph 1018.4mb 55f
5:30pm  -   -   -  18 20 mph 1018.4mb 55f
5:20pm  -   -   -  18 20 mph 1018.3mb 55f
5:10pm  -   -   -  18 22 mph 1018.1mb 55f
5:00pm  -   -   -  18 22 mph 1018.4mb 55f
4:50pm 6ft 8s 6s 18 25 mph 1018.5mb 55f
4:40pm 6ft  -  6s 18 22 mph 1018.5mb 55f
4:30pm  -   -   -  18 22 mph 1018.5mb 55f
4:20pm  -   -   -  18 22 mph 1018.4mb 55f
4:10pm  -   -   -  18 22 mph 1018mb 55f
4:00pm  -   -   -  18 22 mph 1017.9mb 55f
3:50pm 6ft 8s 6s 18 22 mph 1017.9mb 55f
3:40pm  -   -   -  20 25 mph 1017.9mb 55f
3:30pm  -   -   -  20 25 mph 1017.9mb 55f
3:20pm  -   -   -  20 25 mph 1017.8mb 55f
3:10pm  -   -   -  20 25 mph 1017.6mb 55f
3:00pm  -   -   -  20 25 mph 1017.5mb 55f
2:50pm 6ft 8s 6s 20 22 mph 1017.5mb 55f
2:40pm  -   -   -  18 25 mph 1017.5mb 55f
2:30pm  -   -   -  18 22 mph 1017.5mb 55f
2:20pm  -   -   -  18 22 mph 1017.5mb 55f
2:10pm  -   -   -  18 22 mph 1017.3mb 55f
2:00pm  -   -   -  18 22 mph 1017.3mb 55f
1:50pm 6.5ft 8s 6s 20 25 mph 1017.4mb 55f
1:40pm 6.5ft  -  6s 20 25 mph 1017.3mb 55f
1:30pm  -   -   -  20 25 mph 1017.1mb 55f
1:20pm  -   -   -  20 25 mph 1017.1mb 55f
1:10pm  -   -   -  20 25 mph 1017.3mb 55f
1:00pm  -   -   -  20 25 mph 1017.1mb 55f
12:50pm 7ft 8s 6s 20 25 mph 1017mb 55f
12:40pm 7ft  -  6s 22 27 mph 1017mb 55f
12:30pm  -   -   -  22 29 mph 1016.9mb 55f
12:20pm  -   -   -  22 29 mph 1017mb 55f
12:10pm  -   -   -  22 29 mph 1017.1mb 55f
12:00pm  -   -   -  22 27 mph 1017.1mb 55f
11:50am 6.5ft 8s 6s 22 27 mph 1017mb 55f
11:40am 6.5ft  -  6s 20 25 mph 1017mb 55f
11:30am  -   -   -  18 22 mph 1017.1mb 55f
11:20am  -   -   -  20 27 mph 1017.1mb 55f
11:10am  -   -   -  20 25 mph 1017.3mb 55f
11:00am  -   -   -  20 25 mph 1017.4mb 55f
10:50am 7ft 8s 6s 18 22 mph 1017.1mb 55f
10:40am 7ft  -  6s 13 20 mph 1017mb 55f
10:30am  -   -   -  16 18 mph 1017mb 55f
10:20am  -   -   -  16 18 mph 1016.9mb 55f
10:10am  -   -   -  16 20 mph 1016.9mb 54f
10:00am  -   -   -  13 18 mph 1017mb 54f
9:50am 7ft 8s 6s 16 20 mph 1016.9mb 54f
9:40am 7ft  -  6s 13 18 mph 1016.9mb 54f
9:30am  -   -   -  16 22 mph 1016.6mb 54f
9:20am  -   -   -  16 22 mph 1016.5mb 54f
9:10am  -   -   -  13 20 mph 1016.4mb 54f
9:00am  -   -   -  16 20 mph 1016.1mb 54f
8:50am 8ft 8s 6s 18 20 mph 1016mb 54f
8:40am 8ft  -  6s 16 22 mph 1016mb 54f
8:30am  -   -   -  20 22 mph 1015.9mb 54f
8:20am  -   -   -  20 25 mph 1015.6mb 54f
8:10am  -   -   -  20 25 mph 1015.5mb 54f
8:00am  -   -   -  20 25 mph 1015.5mb 54f
7:50am 8ft 8s 6s 20 25 mph 1015.5mb 54f
7:40am  -   -   -  18 22 mph 1015.4mb 54f
7:30am  -   -   -  18 22 mph 1015.3mb 54f
7:20am  -   -   -  18 22 mph 1015.4mb 54f
7:10am  -   -   -  18 20 mph 1015.1mb 54f
7:00am  -   -   -  18 22 mph 1015mb 54f
6:50am 8ft 8s 6s 18 22 mph 1015mb 54f
6:40am 8ft  -  6s 18 25 mph 1014.9mb 54f
6:30am  -   -   -  20 25 mph 1014.8mb 54f
6:20am  -   -   -  20 27 mph 1014.8mb 54f
6:10am  -   -   -  20 25 mph 1014.5mb 54f
6:00am  -   -   -  20 27 mph 1014.5mb 54f
5:50am 8ft 9s 6s 18 22 mph 1014.4mb 54f
5:40am  -   -   -  16 20 mph 1014.3mb 54f
5:30am 8ft  -  6s 18 22 mph 1014.3mb 54f
5:20am  -   -   -  18 22 mph 1014.3mb 54f
5:10am  -   -   -  22 27 mph 1014.6mb 54f
5:00am  -   -   -  22 29 mph 1014.5mb 54f
4:50am 9ft 8s 6s 20 25 mph 1014.3mb 54f
4:40am  -   -   -  18 25 mph 1014.3mb 54f
4:30am  -   -   -  20 27 mph 1014.1mb 54f
4:20am  -   -   -  20 27 mph 1014mb 54f
4:10am  -   -   -  22 27 mph 1013.9mb 54f
4:00am  -   -   -  22 29 mph 1013.8mb 54f
3:50am 9ft 8s 6s 22 29 mph 1013.8mb 54f
3:40am 9ft  -  6s 25 31 mph 1013.6mb 54f
3:30am  -   -   -  20 31 mph 1013.5mb 53f
3:20am  -   -   -  18 27 mph 1013.6mb 53f
3:10am  -   -   -  20 27 mph 1013.9mb 54f
3:00am  -   -   -  22 27 mph 1013.9mb 54f
2:50am 8ft 8s 6s 20 29 mph 1013.9mb 53f
2:40am  -   -   -  13 20 mph 1014mb 52f
2:30am  -   -   -  18 29 mph 1014mb 53f
2:20am  -   -   -  25 34 mph 1013.8mb 54f
2:10am  -   -   -  25 34 mph 1013.8mb 53f
2:00am  -   -   -  25 31 mph 1013.6mb 53f
1:50am 8ft 8s 6s 25 34 mph 1013.6mb 54f
1:40am 8ft  -  6s 27 34 mph 1013.6mb 54f
1:30am  -   -   -  27 34 mph 1013.8mb 54f
1:20am  -   -   -  27 34 mph 1013.8mb 54f
1:10am  -   -   -  27 36 mph 1013.6mb 54f
1:00am  -   -   -  27 34 mph 1013.5mb 53f
12:50am 9ft 7s 6s 25 36 mph 1013.5mb 53f
12:40am 9ft  -  6s 20 34 mph 1013.6mb 52f
12:30am  -   -   -  20 34 mph 1013.6mb 52f
12:20am  -   -   -  22 29 mph 1013.5mb 53f
12:10am  -   -   -  22 34 mph 1013.5mb 53f
12:00am  -   -   -  27 34 mph 1013.8mb 53f
Wed 12/07 11:50pm 8.5ft 8s 6s 27 38 mph 1013.6mb 53f
11:40pm 8.5ft  -  6s 22 31 mph 1013.8mb 52f
11:30pm  -   -   -  20 25 mph 1014mb 50f
11:20pm  -   -   -  20 25 mph 1014mb 50f
9:50pm 9ft 7s 6s 25 29 mph 1014.1mb 48f
8:50pm 8.5ft 8s  -  27 31 mph 1014.3mb 48f
8:30pm  -   -   -  27 31 mph 1014.3mb 47f
8:20pm  -   -   -  25 31 mph 1014.5mb 47f
8:10pm  -   -   -  25 31 mph 1014.4mb 47f
8:00pm  -   -   -  22 29 mph 1014.4mb 47f
7:50pm 8ft 7s 6s 25 31 mph 1014.5mb 47f
7:40pm 8ft  -  6s 25 29 mph 1014.5mb 48f
7:30pm  -   -   -  22 29 mph 1014.3mb 47f
7:20pm  -   -   -  20 25 mph 1014.5mb 47f
7:10pm  -   -   -  20 25 mph 1014.6mb 48f
7:00pm  -   -   -  20 25 mph 1014.4mb 48f
6:50pm 8ft 7s 6s 18 25 mph 1014.6mb 48f
6:40pm 8ft  -  6s 20 25 mph 1014.5mb 49f
6:30pm  -   -   -  20 27 mph 1014.5mb 49f
6:20pm  -   -   -  18 25 mph 1014.5mb 49f
6:10pm  -   -   -  18 22 mph 1014.8mb 49f
6:00pm  -   -   -  18 25 mph 1014.8mb 49f
5:50pm 8ft 11s 6s 20 25 mph 1014.8mb 49f
5:40pm 8ft  -  6s 22 27 mph 1014.6mb 49f
5:30pm  -   -   -  22 29 mph 1014.8mb 49f
5:20pm  -   -   -  22 27 mph 1015mb 48f
5:10pm  -   -   -  25 29 mph 1015mb 48f
5:00pm  -   -   -  25 29 mph 1015mb -
4:50pm 7ft 6s 5s 25 29 mph 1015.4mb 49f
4:40pm  -   -   -  25 31 mph 1015.5mb 48f
4:30pm  -   -   -  25 31 mph 1015.5mb 49f
4:20pm  -   -   -  25 31 mph 1015.8mb 49f
4:10pm  -   -   -  22 29 mph 1015.9mb 48f
4:00pm  -   -   -  25 29 mph 1016mb 48f
3:50pm 6ft 11s 5s 25 31 mph 1016mb 48f
3:40pm 6ft  -  5s 27 34 mph 1016.1mb 49f
3:30pm  -   -   -  25 34 mph 1016.5mb 49f
3:20pm  -   -   -  25 34 mph 1016.6mb 49f
3:10pm  -   -   -  25 31 mph 1016.9mb 50f
3:00pm  -   -   -  22 27 mph 1017mb 49f
2:50pm 6ft 12s 6s 20 29 mph 1017mb 50f
2:30pm  -   -   -  20 29 mph 1017.3mb 50f
2:20pm  -   -   -  18 29 mph 1017.3mb 51f
2:10pm  -   -   -  20 27 mph 1017mb 50f
2:00pm  -   -   -  18 27 mph 1017.1mb 51f
1:50pm 6ft 12s 6s 18 22 mph 1017mb 50f
1:40pm 6ft  -  6s 18 22 mph 1017.4mb 50f
1:30pm  -   -   -  18 25 mph 1017.5mb 50f
1:20pm  -   -   -  18 22 mph 1017.9mb 50f
1:10pm  -   -   -  16 18 mph 1018.3mb 50f
1:00pm  -   -   -  16 18 mph 1018.8mb 50f
12:50pm 6ft 11s 6s 16 20 mph 1019mb 50f
12:40pm 6ft  -  6s 16 20 mph 1018.9mb 50f
12:30pm  -   -   -  16 20 mph 1019mb 50f
12:20pm  -   -   -  18 22 mph 1018.8mb 50f
12:10pm  -   -   -  18 22 mph 1018.8mb 50f
12:00pm  -   -   -  18 22 mph 1019.1mb 50f
11:50am 6ft 12s 6s 18 22 mph 1019.5mb 50f
11:40am 6ft  -  6s 18 20 mph 1019.9mb 50f
11:30am  -   -   -  18 22 mph 1020.1mb 50f
11:20am  -   -   -  16 20 mph 1020.4mb 50f
11:10am  -   -   -  16 20 mph 1020.5mb 50f
11:00am  -   -   -  16 20 mph 1020.5mb 50f
10:50am 6ft 12s 7s 16 20 mph 1020.6mb 50f